sensor_id;sensor_type;location;lat;lon;timestamp;pressure;altitude;pressure_sealevel;temperature;humidity
12172;BME280;6149;52.418;13.668;2022-09-03T00:00:15;101496.50;;;11.27;87.45
12172;BME280;6149;52.418;13.668;2022-09-03T00:02:46;101493.13;;;11.23;87.59
12172;BME280;6149;52.418;13.668;2022-09-03T00:05:21;101504.72;;;11.21;87.70
12172;BME280;6149;52.418;13.668;2022-09-03T00:07:58;101505.63;;;11.20;87.04
12172;BME280;6149;52.418;13.668;2022-09-03T00:10:33;101496.75;;;11.21;85.83
12172;BME280;6149;52.418;13.668;2022-09-03T00:13:13;101495.72;;;11.25;85.88
12172;BME280;6149;52.418;13.668;2022-09-03T00:15:43;101495.72;;;11.25;85.95
12172;BME280;6149;52.418;13.668;2022-09-03T00:18:13;101504.66;;;11.22;86.09
12172;BME280;6149;52.418;13.668;2022-09-03T00:20:44;101491.53;;;11.19;86.25
12172;BME280;6149;52.418;13.668;2022-09-03T00:23:19;101489.81;;;11.18;86.04
12172;BME280;6149;52.418;13.668;2022-09-03T00:25:52;101498.72;;;11.16;86.92
12172;BME280;6149;52.418;13.668;2022-09-03T00:28:25;101497.00;;;11.15;86.92
12172;BME280;6149;52.418;13.668;2022-09-03T00:31:06;101497.88;;;11.15;86.62
12172;BME280;6149;52.418;13.668;2022-09-03T00:33:38;101490.03;;;11.14;86.45
12172;BME280;6149;52.418;13.668;2022-09-03T00:36:14;101493.59;;;11.13;87.63
12172;BME280;6149;52.418;13.668;2022-09-03T00:38:43;101491.88;;;11.12;86.06
12172;BME280;6149;52.418;13.668;2022-09-03T00:41:18;101490.16;;;11.11;86.74
12172;BME280;6149;52.418;13.668;2022-09-03T00:44:06;101493.72;;;11.10;86.78
12172;BME280;6149;52.418;13.668;2022-09-03T00:46:44;101491.19;;;11.07;86.45
12172;BME280;6149;52.418;13.668;2022-09-03T00:49:24;101493.91;;;11.05;86.81
12172;BME280;6149;52.418;13.668;2022-09-03T00:52:02;101496.72;;;11.00;87.78
12172;BME280;6149;52.418;13.668;2022-09-03T00:54:42;101492.44;;;10.98;88.20
12172;BME280;6149;52.418;13.668;2022-09-03T00:57:31;101489.91;;;10.95;87.69
12172;BME280;6149;52.418;13.668;2022-09-03T01:00:07;101479.44;;;10.92;87.85
12172;BME280;6149;52.418;13.668;2022-09-03T01:02:54;101486.69;;;10.87;88.48
12172;BME280;6149;52.418;13.668;2022-09-03T01:05:35;101477.09;;;10.84;89.25
12172;BME280;6149;52.418;13.668;2022-09-03T01:08:19;101469.41;;;10.78;89.48
12172;BME280;6149;52.418;13.668;2022-09-03T01:11:02;101476.34;;;10.81;89.42
12172;BME280;6149;52.418;13.668;2022-09-03T01:13:40;101479.34;;;10.73;90.02
12172;BME280;6149;52.418;13.668;2022-09-03T01:16:16;101472.31;;;10.72;89.23
12172;BME280;6149;52.418;13.668;2022-09-03T01:18:56;101469.78;;;10.69;90.18
12172;BME280;6149;52.418;13.668;2022-09-03T01:21:42;101469.97;;;10.64;90.00
12172;BME280;6149;52.418;13.668;2022-09-03T01:24:38;101463.94;;;10.61;90.35
12172;BME280;6149;52.418;13.668;2022-09-03T01:27:24;101469.34;;;10.58;91.61
12172;BME280;6149;52.418;13.668;2022-09-03T01:30:03;101472.91;;;10.57;91.65
12172;BME280;6149;52.418;13.668;2022-09-03T01:32:38;101469.47;;;10.55;91.39
12172;BME280;6149;52.418;13.668;2022-09-03T01:35:17;101473.03;;;10.54;91.27
12172;BME280;6149;52.418;13.668;2022-09-03T01:37:57;101476.66;;;10.51;91.92
12172;BME280;6149;52.418;13.668;2022-09-03T01:40:37;101468.84;;;10.48;91.41
12172;BME280;6149;52.418;13.668;2022-09-03T01:43:20;101472.47;;;10.46;91.63
12172;BME280;6149;52.418;13.668;2022-09-03T01:46:03;101469.94;;;10.43;91.71
12172;BME280;6149;52.418;13.668;2022-09-03T01:48:42;101469.34;;;10.36;92.60
12172;BME280;6149;52.418;13.668;2022-09-03T01:51:20;101468.53;;;10.34;92.44
12172;BME280;6149;52.418;13.668;2022-09-03T01:54:08;101473.06;;;10.30;92.34
12172;BME280;6149;52.418;13.668;2022-09-03T01:57:01;101467.88;;;10.27;92.67
12172;BME280;6149;52.418;13.668;2022-09-03T01:59:41;101473.88;;;10.32;92.31
12172;BME280;6149;52.418;13.668;2022-09-03T02:02:17;101472.19;;;10.30;92.25
12172;BME280;6149;52.418;13.668;2022-09-03T02:04:57;101467.09;;;10.25;91.67
12172;BME280;6149;52.418;13.668;2022-09-03T02:07:29;101470.59;;;10.26;92.73
12172;BME280;6149;52.418;13.668;2022-09-03T02:09:59;101475.00;;;10.25;92.61
12172;BME280;6149;52.418;13.668;2022-09-03T02:12:28;101468.00;;;10.24;93.28
12172;BME280;6149;52.418;13.668;2022-09-03T02:14:57;101475.00;;;10.25;92.64
12172;BME280;6149;52.418;13.668;2022-09-03T02:17:25;101475.94;;;10.24;93.05
12172;BME280;6149;52.418;13.668;2022-09-03T02:19:53;101476.03;;;10.21;93.37
12172;BME280;6149;52.418;13.668;2022-09-03T02:22:20;101472.69;;;10.16;93.37
12172;BME280;6149;52.418;13.668;2022-09-03T02:24:46;101470.94;;;10.15;92.93
12172;BME280;6149;52.418;13.668;2022-09-03T02:27:13;101477.91;;;10.18;92.62
12172;BME280;6149;52.418;13.668;2022-09-03T02:29:41;101471.75;;;10.17;93.12
12172;BME280;6149;52.418;13.668;2022-09-03T02:32:07;101467.31;;;10.19;93.13
12172;BME280;6149;52.418;13.668;2022-09-03T02:34:35;101471.69;;;10.19;93.85
12172;BME280;6149;52.418;13.668;2022-09-03T02:37:11;101467.31;;;10.19;94.41
12172;BME280;6149;52.418;13.668;2022-09-03T02:39:38;101467.31;;;10.19;94.70
12172;BME280;6149;52.418;13.668;2022-09-03T02:42:05;101473.47;;;10.20;94.91
12172;BME280;6149;52.418;13.668;2022-09-03T02:44:34;101470.84;;;10.18;96.06
12172;BME280;6149;52.418;13.668;2022-09-03T02:47:04;101469.97;;;10.18;95.00
12172;BME280;6149;52.418;13.668;2022-09-03T02:49:32;101466.41;;;10.19;94.16
12172;BME280;6149;52.418;13.668;2022-09-03T02:52:03;101471.75;;;10.17;95.36
12172;BME280;6149;52.418;13.668;2022-09-03T02:54:34;101469.13;;;10.17;94.91
12172;BME280;6149;52.418;13.668;2022-09-03T02:57:04;101467.44;;;10.15;95.17
12172;BME280;6149;52.418;13.668;2022-09-03T02:59:31;101468.38;;;10.14;94.13
12172;BME280;6149;52.418;13.668;2022-09-03T03:01:57;101470.91;;;10.17;94.37
12172;BME280;6149;52.418;13.668;2022-09-03T03:04:24;101467.34;;;10.18;93.68
12172;BME280;6149;52.418;13.668;2022-09-03T03:06:53;101472.69;;;10.16;93.86
12172;BME280;6149;52.418;13.668;2022-09-03T03:09:20;101471.06;;;10.12;93.71
12172;BME280;6149;52.418;13.668;2022-09-03T03:11:46;101466.41;;;10.20;92.83
12172;BME280;6149;52.418;13.668;2022-09-03T03:14:15;101472.59;;;10.19;93.40
12172;BME280;6149;52.418;13.668;2022-09-03T03:16:42;101470.84;;;10.18;93.76
12172;BME280;6149;52.418;13.668;2022-09-03T03:19:08;101472.63;;;10.18;93.78
12172;BME280;6149;52.418;13.668;2022-09-03T03:21:35;101458.34;;;10.23;93.06
12172;BME280;6149;52.418;13.668;2022-09-03T03:24:03;101470.75;;;10.21;92.42
12172;BME280;6149;52.418;13.668;2022-09-03T03:26:31;101475.25;;;10.18;92.94
12172;BME280;6149;52.418;13.668;2022-09-03T03:28:59;101471.88;;;10.14;93.54
12172;BME280;6149;52.418;13.668;2022-09-03T03:31:29;101471.19;;;10.09;93.60
12172;BME280;6149;52.418;13.668;2022-09-03T03:33:57;101477.44;;;10.06;94.13
12172;BME280;6149;52.418;13.668;2022-09-03T03:36:28;101476.53;;;10.07;93.43
12172;BME280;6149;52.418;13.668;2022-09-03T03:38:57;101480.19;;;10.03;93.03
12172;BME280;6149;52.418;13.668;2022-09-03T03:41:27;101488.19;;;10.02;93.77
12172;BME280;6149;52.418;13.668;2022-09-03T03:43:56;101494.41;;;10.01;93.54
12172;BME280;6149;52.418;13.668;2022-09-03T03:46:29;101492.78;;;9.97;93.96
12172;BME280;6149;52.418;13.668;2022-09-03T03:48:56;101493.00;;;9.91;93.58
12172;BME280;6149;52.418;13.668;2022-09-03T03:51:24;101491.38;;;9.87;94.36
12172;BME280;6149;52.418;13.668;2022-09-03T03:53:53;101488.84;;;9.84;94.98
12172;BME280;6149;52.418;13.668;2022-09-03T03:56:22;101485.47;;;9.80;95.06
12172;BME280;6149;52.418;13.668;2022-09-03T03:58:53;101487.63;;;9.94;93.55
12172;BME280;6149;52.418;13.668;2022-09-03T04:01:21;101484.28;;;9.89;94.52
12172;BME280;6149;52.418;13.668;2022-09-03T04:03:49;101483.84;;;10.01;93.36
12172;BME280;6149;52.418;13.668;2022-09-03T04:06:18;101476.81;;;10.00;93.42
12172;BME280;6149;52.418;13.668;2022-09-03T04:08:46;101482.84;;;10.03;93.88
12172;BME280;6149;52.418;13.668;2022-09-03T04:11:15;101489.25;;;10.21;92.42
12172;BME280;6149;52.418;13.668;2022-09-03T04:13:44;101485.19;;;10.36;93.12
12172;BME280;6149;52.418;13.668;2022-09-03T04:16:14;101480.75;;;10.36;91.87
12172;BME280;6149;52.418;13.668;2022-09-03T04:18:43;101486.72;;;10.42;91.54
12172;BME280;6149;52.418;13.668;2022-09-03T04:21:12;101488.22;;;10.49;92.03
12172;BME280;6149;52.418;13.668;2022-09-03T04:23:42;101481.88;;;10.53;91.83
12172;BME280;6149;52.418;13.668;2022-09-03T04:26:12;101480.16;;;10.52;90.38
12172;BME280;6149;52.418;13.668;2022-09-03T04:28:40;101481.75;;;10.56;91.45
12172;BME280;6149;52.418;13.668;2022-09-03T04:31:08;101477.28;;;10.58;91.09
12172;BME280;6149;52.418;13.668;2022-09-03T04:33:38;101481.69;;;10.57;91.12
12172;BME280;6149;52.418;13.668;2022-09-03T04:36:08;101483.25;;;10.63;91.40
12172;BME280;6149;52.418;13.668;2022-09-03T04:38:39;101486.94;;;10.59;91.14
12172;BME280;6149;52.418;13.668;2022-09-03T04:41:10;101489.91;;;10.73;90.45
12172;BME280;6149;52.418;13.668;2022-09-03T04:43:38;101481.19;;;10.71;90.94
12172;BME280;6149;52.418;13.668;2022-09-03T04:46:06;101482.63;;;10.78;89.79
12172;BME280;6149;52.418;13.668;2022-09-03T04:48:34;101476.06;;;10.88;89.79
12172;BME280;6149;52.418;13.668;2022-09-03T04:51:05;101474.69;;;10.78;90.65
12172;BME280;6149;52.418;13.668;2022-09-03T04:53:34;101474.63;;;10.80;90.70
12172;BME280;6149;52.418;13.668;2022-09-03T04:56:02;101481.84;;;10.76;90.68
12172;BME280;6149;52.418;13.668;2022-09-03T04:58:28;101473.66;;;10.82;90.68
12172;BME280;6149;52.418;13.668;2022-09-03T05:00:55;101480.84;;;10.79;91.19
12172;BME280;6149;52.418;13.668;2022-09-03T05:03:22;101482.19;;;10.89;90.56
12172;BME280;6149;52.418;13.668;2022-09-03T05:05:52;101480.53;;;10.86;90.71
12172;BME280;6149;52.418;13.668;2022-09-03T05:08:21;101479.81;;;10.83;91.16
12172;BME280;6149;52.418;13.668;2022-09-03T05:10:48;101485.22;;;10.80;91.81
12172;BME280;6149;52.418;13.668;2022-09-03T05:13:15;101486.00;;;10.82;91.24
12172;BME280;6149;52.418;13.668;2022-09-03T05:15:42;101490.88;;;10.92;91.14
12172;BME280;6149;52.418;13.668;2022-09-03T05:18:09;101490.13;;;10.89;91.31
12172;BME280;6149;52.418;13.668;2022-09-03T05:20:36;101494.06;;;10.79;91.68
12172;BME280;6149;52.418;13.668;2022-09-03T05:23:03;101488.13;;;10.74;91.83
12172;BME280;6149;52.418;13.668;2022-09-03T05:25:31;101494.41;;;10.71;93.10
12172;BME280;6149;52.418;13.668;2022-09-03T05:27:58;101493.41;;;10.74;93.68
12172;BME280;6149;52.418;13.668;2022-09-03T05:30:26;101495.09;;;10.76;93.44
12172;BME280;6149;52.418;13.668;2022-09-03T05:32:52;101497.91;;;10.71;93.74
12172;BME280;6149;52.418;13.668;2022-09-03T05:35:19;101504.06;;;10.72;93.95
12172;BME280;6149;52.418;13.668;2022-09-03T05:37:45;101500.28;;;10.78;93.93
12172;BME280;6149;52.418;13.668;2022-09-03T05:40:12;101499.56;;;10.74;93.82
12172;BME280;6149;52.418;13.668;2022-09-03T05:42:41;101495.19;;;10.73;94.27
12172;BME280;6149;52.418;13.668;2022-09-03T05:45:09;101494.94;;;10.79;94.76
12172;BME280;6149;52.418;13.668;2022-09-03T05:47:37;101489.59;;;10.81;94.46
12172;BME280;6149;52.418;13.668;2022-09-03T05:50:06;101496.34;;;10.88;94.25
12172;BME280;6149;52.418;13.668;2022-09-03T05:52:35;101503.13;;;10.95;94.34
12172;BME280;6149;52.418;13.668;2022-09-03T05:55:05;101505.28;;;11.07;94.65
12172;BME280;6149;52.418;13.668;2022-09-03T05:57:32;101502.00;;;11.22;93.75
12172;BME280;6149;52.418;13.668;2022-09-03T06:00:01;101502.91;;;11.43;93.15
12172;BME280;6149;52.418;13.668;2022-09-03T06:02:28;101498.06;;;11.73;91.04
12172;BME280;6149;52.418;13.668;2022-09-03T06:04:55;101500.00;;;11.90;90.62
12172;BME280;6149;52.418;13.668;2022-09-03T06:07:23;101497.81;;;11.99;89.77
12172;BME280;6149;52.418;13.668;2022-09-03T06:09:51;101504.81;;;12.00;89.74
12172;BME280;6149;52.418;13.668;2022-09-03T06:12:18;101501.13;;;12.04;89.21
12172;BME280;6149;52.418;13.668;2022-09-03T06:14:45;101510.00;;;12.03;88.94
12172;BME280;6149;52.418;13.668;2022-09-03T06:17:13;101511.84;;;12.22;89.63
12172;BME280;6149;52.418;13.668;2022-09-03T06:19:40;101499.38;;;12.24;88.16
12172;BME280;6149;52.418;13.668;2022-09-03T06:22:06;101499.00;;;12.31;89.46
12172;BME280;6149;52.418;13.668;2022-09-03T06:24:33;101493.41;;;12.37;89.03
12172;BME280;6149;52.418;13.668;2022-09-03T06:26:59;101498.22;;;12.48;88.39
12172;BME280;6149;52.418;13.668;2022-09-03T06:29:26;101490.91;;;12.53;89.16
12172;BME280;6149;52.418;13.668;2022-09-03T06:31:53;101489.69;;;12.60;88.88
12172;BME280;6149;52.418;13.668;2022-09-03T06:34:21;101497.34;;;12.66;89.46
12172;BME280;6149;52.418;13.668;2022-09-03T06:36:51;101494.19;;;12.77;87.75
12172;BME280;6149;52.418;13.668;2022-09-03T06:39:17;101493.81;;;12.85;87.99
12172;BME280;6149;52.418;13.668;2022-09-03T06:41:44;101500.56;;;12.92;87.03
12172;BME280;6149;52.418;13.668;2022-09-03T06:44:16;101492.03;;;13.02;87.24
12172;BME280;6149;52.418;13.668;2022-09-03T06:46:43;101500.16;;;13.18;86.64
12172;BME280;6149;52.418;13.668;2022-09-03T06:49:11;101495.19;;;13.29;85.76
12172;BME280;6149;52.418;13.668;2022-09-03T06:51:39;101489.38;;;13.38;85.62
12172;BME280;6149;52.418;13.668;2022-09-03T06:54:08;101497.44;;;13.54;84.26
12172;BME280;6149;52.418;13.668;2022-09-03T06:56:38;101497.59;;;13.68;83.77
12172;BME280;6149;52.418;13.668;2022-09-03T06:59:08;101499.69;;;13.79;82.64
12172;BME280;6149;52.418;13.668;2022-09-03T07:01:36;101491.06;;;13.91;82.40
12172;BME280;6149;52.418;13.668;2022-09-03T07:04:05;101496.63;;;14.04;82.28
12172;BME280;6149;52.418;13.668;2022-09-03T07:06:35;101492.66;;;14.11;81.74
12172;BME280;6149;52.418;13.668;2022-09-03T07:09:04;101496.63;;;14.20;79.96
12172;BME280;6149;52.418;13.668;2022-09-03T07:11:31;101492.63;;;14.28;80.57
12172;BME280;6149;52.418;13.668;2022-09-03T07:14:00;101494.75;;;14.55;80.02
12172;BME280;6149;52.418;13.668;2022-09-03T07:16:31;101497.50;;;14.69;79.55
12172;BME280;6149;52.418;13.668;2022-09-03T07:19:01;101486.00;;;14.84;77.08
12172;BME280;6149;52.418;13.668;2022-09-03T07:21:30;101493.53;;;15.08;76.52
12172;BME280;6149;52.418;13.668;2022-09-03T07:23:59;101494.38;;;15.08;76.30
12172;BME280;6149;52.418;13.668;2022-09-03T07:26:29;101495.50;;;15.20;75.16
12172;BME280;6149;52.418;13.668;2022-09-03T07:28:58;101492.75;;;15.35;76.01
12172;BME280;6149;52.418;13.668;2022-09-03T07:31:26;101491.31;;;15.60;73.78
12172;BME280;6149;52.418;13.668;2022-09-03T07:33:55;101495.09;;;16.00;72.85
12172;BME280;6149;52.418;13.668;2022-09-03T07:36:24;101502.66;;;16.22;71.25
12172;BME280;6149;52.418;13.668;2022-09-03T07:38:54;101500.47;;;16.28;70.78
12172;BME280;6149;52.418;13.668;2022-09-03T07:41:22;101501.78;;;16.35;70.78
12172;BME280;6149;52.418;13.668;2022-09-03T07:43:52;101509.22;;;16.45;68.32
12172;BME280;6149;52.418;13.668;2022-09-03T07:46:21;101501.38;;;16.42;67.81
12172;BME280;6149;52.418;13.668;2022-09-03T07:48:50;101508.34;;;16.58;67.89
12172;BME280;6149;52.418;13.668;2022-09-03T07:51:20;101503.75;;;16.75;68.41
12172;BME280;6149;52.418;13.668;2022-09-03T07:53:52;101510.03;;;17.15;65.76
12172;BME280;6149;52.418;13.668;2022-09-03T07:56:20;101499.63;;;17.50;65.21
12172;BME280;6149;52.418;13.668;2022-09-03T07:58:47;101498.47;;;17.41;63.89
12172;BME280;6149;52.418;13.668;2022-09-03T08:01:16;101512.03;;;17.38;64.62
12172;BME280;6149;52.418;13.668;2022-09-03T08:03:45;101509.47;;;17.36;64.11
12172;BME280;6149;52.418;13.668;2022-09-03T08:06:14;101504.22;;;17.35;66.20
12172;BME280;6149;52.418;13.668;2022-09-03T08:08:42;101507.75;;;17.48;65.12
12172;BME280;6149;52.418;13.668;2022-09-03T08:11:11;101511.06;;;17.66;65.14
12172;BME280;6149;52.418;13.668;2022-09-03T08:13:39;101507.44;;;18.05;62.67
12172;BME280;6149;52.418;13.668;2022-09-03T08:16:08;101512.44;;;18.35;60.21
12172;BME280;6149;52.418;13.668;2022-09-03T08:18:37;101507.91;;;18.61;61.56
12172;BME280;6149;52.418;13.668;2022-09-03T08:21:05;101504.66;;;18.81;58.62
12172;BME280;6149;52.418;13.668;2022-09-03T08:23:36;101506.56;;;18.92;58.33
12172;BME280;6149;52.418;13.668;2022-09-03T08:26:04;101504.47;;;18.95;57.93
12172;BME280;6149;52.418;13.668;2022-09-03T08:28:31;101500.09;;;19.18;57.59
12172;BME280;6149;52.418;13.668;2022-09-03T08:31:03;101504.78;;;19.27;56.24
12172;BME280;6149;52.418;13.668;2022-09-03T08:33:31;101500.53;;;19.36;56.85
12172;BME280;6149;52.418;13.668;2022-09-03T08:36:10;101498.25;;;19.66;57.29
12172;BME280;6149;52.418;13.668;2022-09-03T08:38:38;101501.63;;;19.68;55.01
12172;BME280;6149;52.418;13.668;2022-09-03T08:41:11;101495.47;;;19.90;56.10
12172;BME280;6149;52.418;13.668;2022-09-03T08:43:54;101493.53;;;20.15;55.76
12172;BME280;6149;52.418;13.668;2022-09-03T08:46:35;101500.50;;;20.28;53.72
12172;BME280;6149;52.418;13.668;2022-09-03T08:49:09;101490.63;;;20.29;53.29
12172;BME280;6149;52.418;13.668;2022-09-03T08:51:40;101492.22;;;20.43;52.99
12172;BME280;6149;52.418;13.668;2022-09-03T08:54:09;101487.22;;;20.49;52.71
12172;BME280;6149;52.418;13.668;2022-09-03T08:56:39;101480.19;;;20.80;52.20
12172;BME280;6149;52.418;13.668;2022-09-03T08:59:07;101486.69;;;21.21;51.38
12172;BME280;6149;52.418;13.668;2022-09-03T09:01:42;101484.03;;;21.10;49.76
12172;BME280;6149;52.418;13.668;2022-09-03T09:04:23;101479.22;;;21.24;49.36
12172;BME280;6149;52.418;13.668;2022-09-03T09:07:06;101481.94;;;21.45;48.00
12172;BME280;6149;52.418;13.668;2022-09-03T09:09:42;101479.91;;;21.58;48.51
12172;BME280;6149;52.418;13.668;2022-09-03T09:12:22;101481.56;;;21.71;47.84
12172;BME280;6149;52.418;13.668;2022-09-03T09:15:04;101472.75;;;21.68;47.17
12172;BME280;6149;52.418;13.668;2022-09-03T09:17:51;101468.81;;;21.73;47.04
12172;BME280;6149;52.418;13.668;2022-09-03T09:20:29;101469.91;;;21.91;47.60
12172;BME280;6149;52.418;13.668;2022-09-03T09:23:03;101471.44;;;22.05;45.47
12172;BME280;6149;52.418;13.668;2022-09-03T09:25:32;101463.00;;;22.28;45.70
12172;BME280;6149;52.418;13.668;2022-09-03T09:28:11;101455.88;;;22.58;45.66
12172;BME280;6149;52.418;13.668;2022-09-03T09:30:44;101456.31;;;22.73;45.74
12172;BME280;6149;52.418;13.668;2022-09-03T09:33:12;101453.22;;;22.77;45.71
12172;BME280;6149;52.418;13.668;2022-09-03T09:35:39;101449.44;;;22.89;44.35
12172;BME280;6149;52.418;13.668;2022-09-03T09:38:10;101446.31;;;22.84;44.32
12172;BME280;6149;52.418;13.668;2022-09-03T09:40:39;101439.34;;;23.11;45.59
12172;BME280;6149;52.418;13.668;2022-09-03T09:43:09;101432.81;;;23.13;42.83
12172;BME280;6149;52.418;13.668;2022-09-03T09:45:39;101437.38;;;23.22;42.00
12172;BME280;6149;52.418;13.668;2022-09-03T09:48:12;101446.91;;;22.97;41.89
12172;BME280;6149;52.418;13.668;2022-09-03T09:50:42;101443.75;;;23.02;42.91
12172;BME280;6149;52.418;13.668;2022-09-03T09:53:11;101436.38;;;22.85;41.70
12172;BME280;6149;52.418;13.668;2022-09-03T09:55:52;101446.03;;;22.87;42.01
12172;BME280;6149;52.418;13.668;2022-09-03T09:58:21;101431.53;;;23.08;42.30
12172;BME280;6149;52.418;13.668;2022-09-03T10:01:01;101440.50;;;23.27;41.12
12172;BME280;6149;52.418;13.668;2022-09-03T10:03:40;101439.19;;;23.41;42.59
12172;BME280;6149;52.418;13.668;2022-09-03T10:06:15;101433.81;;;23.31;41.41
12172;BME280;6149;52.418;13.668;2022-09-03T10:09:07;101428.38;;;23.51;41.81
12172;BME280;6149;52.418;13.668;2022-09-03T10:11:36;101416.31;;;23.55;41.50
12172;BME280;6149;52.418;13.668;2022-09-03T10:14:09;101418.31;;;23.62;41.61
12172;BME280;6149;52.418;13.668;2022-09-03T10:16:44;101409.94;;;23.56;39.86
12172;BME280;6149;52.418;13.668;2022-09-03T10:19:17;101426.41;;;23.53;40.77
12172;BME280;6149;52.418;13.668;2022-09-03T10:21:52;101423.44;;;23.08;38.47
12172;BME280;6149;52.418;13.668;2022-09-03T10:24:33;101429.78;;;22.58;38.83
12172;BME280;6149;52.418;13.668;2022-09-03T10:27:06;101426.25;;;22.18;39.60
12172;BME280;6149;52.418;13.668;2022-09-03T10:29:37;101420.63;;;22.00;40.41
12172;BME280;6149;52.418;13.668;2022-09-03T10:32:17;101422.44;;;21.99;40.98
12172;BME280;6149;52.418;13.668;2022-09-03T10:34:52;101407.47;;;21.76;40.67
12172;BME280;6149;52.418;13.668;2022-09-03T10:37:28;101424.28;;;21.68;40.68
12172;BME280;6149;52.418;13.668;2022-09-03T10:40:15;101418.34;;;21.44;41.85
12172;BME280;6149;52.418;13.668;2022-09-03T10:42:56;101409.41;;;21.44;42.26
12172;BME280;6149;52.418;13.668;2022-09-03T10:45:37;101415.41;;;21.47;42.58
12172;BME280;6149;52.418;13.668;2022-09-03T10:48:16;101423.84;;;21.43;44.50
12172;BME280;6149;52.418;13.668;2022-09-03T10:50:55;101411.50;;;21.61;42.49
12172;BME280;6149;52.418;13.668;2022-09-03T10:53:43;101410.53;;;21.41;41.38
12172;BME280;6149;52.418;13.668;2022-09-03T10:56:21;101400.03;;;21.38;43.09
12172;BME280;6149;52.418;13.668;2022-09-03T10:59:03;101406.31;;;21.27;40.71
12172;BME280;6149;52.418;13.668;2022-09-03T11:01:40;101405.59;;;21.25;39.02
12172;BME280;6149;52.418;13.668;2022-09-03T11:04:24;101398.00;;;21.19;40.11
12172;BME280;6149;52.418;13.668;2022-09-03T11:06:58;101396.59;;;21.15;40.06
12172;BME280;6149;52.418;13.668;2022-09-03T11:09:35;101379.47;;;21.37;39.00
12172;BME280;6149;52.418;13.668;2022-09-03T11:12:09;101377.09;;;21.64;40.06
12172;BME280;6149;52.418;13.668;2022-09-03T11:14:41;101367.81;;;21.78;38.53
12172;BME280;6149;52.418;13.668;2022-09-03T11:17:14;101366.75;;;22.00;38.59
12172;BME280;6149;52.418;13.668;2022-09-03T11:19:47;101372.88;;;22.02;39.56
12172;BME280;6149;52.418;13.668;2022-09-03T11:22:16;101364.97;;;22.10;38.27
12172;BME280;6149;52.418;13.668;2022-09-03T11:24:51;101368.97;;;22.16;38.64
12172;BME280;6149;52.418;13.668;2022-09-03T11:27:31;101368.56;;;22.30;38.85
12172;BME280;6149;52.418;13.668;2022-09-03T11:30:04;101363.47;;;22.37;39.88
12172;BME280;6149;52.418;13.668;2022-09-03T11:32:44;101357.81;;;22.40;38.54
12172;BME280;6149;52.418;13.668;2022-09-03T11:35:16;101348.03;;;22.48;39.06
12172;BME280;6149;52.418;13.668;2022-09-03T11:37:52;101355.13;;;22.59;39.63
12172;BME280;6149;52.418;13.668;2022-09-03T11:40:28;101357.25;;;22.46;39.18
12172;BME280;6149;52.418;13.668;2022-09-03T11:43:26;101353.94;;;22.32;38.87
12172;BME280;6149;52.418;13.668;2022-09-03T11:46:01;101359.06;;;22.26;38.44
12172;BME280;6149;52.418;13.668;2022-09-03T11:48:36;101356.59;;;22.04;39.36
12172;BME280;6149;52.418;13.668;2022-09-03T11:51:19;101361.84;;;22.05;39.21
12172;BME280;6149;52.418;13.668;2022-09-03T11:53:57;101363.94;;;22.01;38.50
12172;BME280;6149;52.418;13.668;2022-09-03T11:56:25;101351.81;;;21.86;38.19
12172;BME280;6149;52.418;13.668;2022-09-03T11:59:16;101369.66;;;21.78;38.81
12172;BME280;6149;52.418;13.668;2022-09-03T12:01:48;101361.38;;;21.69;37.87
12172;BME280;6149;52.418;13.668;2022-09-03T12:04:19;101341.00;;;21.77;38.58
12172;BME280;6149;52.418;13.668;2022-09-03T12:10:22;101354.47;;;22.07;38.99
12172;BME280;6149;52.418;13.668;2022-09-03T12:13:06;101343.72;;;22.17;37.98
12172;BME280;6149;52.418;13.668;2022-09-03T12:16:14;101339.56;;;22.03;38.43
12172;BME280;6149;52.418;13.668;2022-09-03T12:18:48;101341.53;;;22.01;37.91
12172;BME280;6149;52.418;13.668;2022-09-03T12:21:17;101330.00;;;21.89;37.79
12172;BME280;6149;52.418;13.668;2022-09-03T12:23:46;101326.03;;;21.84;38.51
12172;BME280;6149;52.418;13.668;2022-09-03T12:26:15;101325.44;;;21.80;38.62
12172;BME280;6149;52.418;13.668;2022-09-03T12:28:45;101330.56;;;21.83;40.13
12172;BME280;6149;52.418;13.668;2022-09-03T12:31:16;101329.72;;;21.92;39.10
12172;BME280;6149;52.418;13.668;2022-09-03T12:33:49;101328.53;;;21.76;38.48
12172;BME280;6149;52.418;13.668;2022-09-03T12:36:18;101323.41;;;21.73;39.26
12172;BME280;6149;52.418;13.668;2022-09-03T12:38:45;101323.16;;;21.76;39.14
12172;BME280;6149;52.418;13.668;2022-09-03T12:41:20;101320.66;;;21.93;39.92
12172;BME280;6149;52.418;13.668;2022-09-03T12:43:51;101316.69;;;21.97;39.13
12172;BME280;6149;52.418;13.668;2022-09-03T12:46:23;101313.84;;;21.99;38.01
12172;BME280;6149;52.418;13.668;2022-09-03T12:48:58;101319.09;;;22.00;38.54
12172;BME280;6149;52.418;13.668;2022-09-03T12:51:32;101307.31;;;21.92;38.83
12172;BME280;6149;52.418;13.668;2022-09-03T12:54:00;101328.94;;;22.01;39.79
12172;BME280;6149;52.418;13.668;2022-09-03T12:56:30;101307.00;;;21.76;38.67
12172;BME280;6149;52.418;13.668;2022-09-03T12:59:03;101306.81;;;21.67;39.35
12172;BME280;6149;52.418;13.668;2022-09-03T13:01:38;101302.97;;;21.60;39.76
12172;BME280;6149;52.418;13.668;2022-09-03T13:04:11;101298.38;;;21.42;39.43
12172;BME280;6149;52.418;13.668;2022-09-03T13:06:47;101296.66;;;21.41;40.03
12172;BME280;6149;52.418;13.668;2022-09-03T13:09:19;101296.72;;;21.50;40.97
12172;BME280;6149;52.418;13.668;2022-09-03T13:11:48;101298.94;;;21.45;38.70
12172;BME280;6149;52.418;13.668;2022-09-03T13:14:16;101292.31;;;21.49;39.19
12172;BME280;6149;52.418;13.668;2022-09-03T13:17:11;101293.19;;;21.59;39.42
12172;BME280;6149;52.418;13.668;2022-09-03T13:20:21;101281.94;;;21.85;40.06